Terminal Aerodrome Forecast
Issued by NWS

Home | Current Version | Previous Version | Text Only | Print | Product List | Glossary On
Versions: 1 2 3 4 5 6 7 8 9 10 11 12 13 14 15 16 17 18 19 20 21 22 23 24 25 26 27 28 29 30 31 32 33 34 35 36 37 38 39 40 41
000
FTPA31 PHFO 021700
TAFOGG
TAF
PHOG 021722Z 0218/0318 04008KT P6SM FEW025 SCT035 BKN045
     FM022000 04015KT P6SM FEW030 SCT060
     FM030600 04011KT P6SM FEW025 SCT060
      AMD LTD TO WX VIS AND WIND 0309/0316=

USA.gov is the U.S. government's official web portal to all federal, state and local government web resources and services.